sensor_id;sensor_type;location;lat;lon;timestamp;temperature;humidity
52867;DHT22;38739;53.324;6.862;2024-03-02T00:00:08;7.00;99.90
52867;DHT22;38739;53.324;6.862;2024-03-02T00:02:43;7.00;99.90
52867;DHT22;38739;53.324;6.862;2024-03-02T00:05:17;7.00;99.90
52867;DHT22;38739;53.324;6.862;2024-03-02T00:07:54;7.00;99.90
52867;DHT22;38739;53.324;6.862;2024-03-02T00:10:25;7.00;99.90
52867;DHT22;38739;53.324;6.862;2024-03-02T00:12:55;7.00;99.90
52867;DHT22;38739;53.324;6.862;2024-03-02T00:18:32;7.00;99.90
52867;DHT22;38739;53.324;6.862;2024-03-02T00:20:59;6.90;99.90
52867;DHT22;38739;53.324;6.862;2024-03-02T00:23:28;6.90;99.90
52867;DHT22;38739;53.324;6.862;2024-03-02T00:25:55;6.90;99.90
52867;DHT22;38739;53.324;6.862;2024-03-02T00:30:55;6.90;99.90
52867;DHT22;38739;53.324;6.862;2024-03-02T00:33:22;6.90;99.90
52867;DHT22;38739;53.324;6.862;2024-03-02T00:35:49;6.90;99.90
52867;DHT22;38739;53.324;6.862;2024-03-02T00:38:15;6.90;99.90
52867;DHT22;38739;53.324;6.862;2024-03-02T00:40:45;6.90;99.90
52867;DHT22;38739;53.324;6.862;2024-03-02T00:45:58;6.90;99.90
52867;DHT22;38739;53.324;6.862;2024-03-02T00:48:24;6.80;99.90
52867;DHT22;38739;53.324;6.862;2024-03-02T00:50:52;6.80;99.90
52867;DHT22;38739;53.324;6.862;2024-03-02T00:53:22;6.70;99.90
52867;DHT22;38739;53.324;6.862;2024-03-02T00:55:49;6.70;99.90
52867;DHT22;38739;53.324;6.862;2024-03-02T00:58:14;6.60;99.90
52867;DHT22;38739;53.324;6.862;2024-03-02T01:00:40;6.60;99.90
52867;DHT22;38739;53.324;6.862;2024-03-02T01:03:06;6.60;99.90
52867;DHT22;38739;53.324;6.862;2024-03-02T01:05:33;6.50;99.90
52867;DHT22;38739;53.324;6.862;2024-03-02T01:07:59;6.50;99.90
52867;DHT22;38739;53.324;6.862;2024-03-02T01:10:25;6.50;99.90
52867;DHT22;38739;53.324;6.862;2024-03-02T01:12:51;6.50;99.90
52867;DHT22;38739;53.324;6.862;2024-03-02T01:15:17;6.60;99.90
52867;DHT22;38739;53.324;6.862;2024-03-02T01:17:43;6.60;99.90
52867;DHT22;38739;53.324;6.862;2024-03-02T01:20:09;6.60;99.90
52867;DHT22;38739;53.324;6.862;2024-03-02T01:22:35;6.60;99.90
52867;DHT22;38739;53.324;6.862;2024-03-02T01:25:01;6.70;99.90
52867;DHT22;38739;53.324;6.862;2024-03-02T01:27:27;6.70;99.90
52867;DHT22;38739;53.324;6.862;2024-03-02T01:29:53;6.80;99.90
52867;DHT22;38739;53.324;6.862;2024-03-02T01:32:20;6.80;99.90
52867;DHT22;38739;53.324;6.862;2024-03-02T01:34:46;6.80;99.90
52867;DHT22;38739;53.324;6.862;2024-03-02T01:37:12;6.90;99.90
52867;DHT22;38739;53.324;6.862;2024-03-02T01:39:37;6.80;99.90
52867;DHT22;38739;53.324;6.862;2024-03-02T01:42:03;6.90;99.90
52867;DHT22;38739;53.324;6.862;2024-03-02T01:44:29;6.90;99.90
52867;DHT22;38739;53.324;6.862;2024-03-02T01:46:55;6.90;99.90
52867;DHT22;38739;53.324;6.862;2024-03-02T01:49:20;6.90;99.90
52867;DHT22;38739;53.324;6.862;2024-03-02T01:51:46;6.90;99.90
52867;DHT22;38739;53.324;6.862;2024-03-02T01:54:12;7.00;99.90
52867;DHT22;38739;53.324;6.862;2024-03-02T01:56:38;7.00;99.90
52867;DHT22;38739;53.324;6.862;2024-03-02T01:59:03;7.00;99.90
52867;DHT22;38739;53.324;6.862;2024-03-02T02:01:29;7.00;99.90
52867;DHT22;38739;53.324;6.862;2024-03-02T02:03:56;7.00;99.90
52867;DHT22;38739;53.324;6.862;2024-03-02T02:06:22;7.00;99.90
52867;DHT22;38739;53.324;6.862;2024-03-02T02:08:48;7.00;99.90
52867;DHT22;38739;53.324;6.862;2024-03-02T02:11:17;7.00;99.90
52867;DHT22;38739;53.324;6.862;2024-03-02T02:13:42;7.00;99.90
52867;DHT22;38739;53.324;6.862;2024-03-02T02:16:08;7.00;99.90
52867;DHT22;38739;53.324;6.862;2024-03-02T02:18:35;7.00;99.90
52867;DHT22;38739;53.324;6.862;2024-03-02T02:21:02;7.00;99.90
52867;DHT22;38739;53.324;6.862;2024-03-02T02:23:28;7.00;99.90
52867;DHT22;38739;53.324;6.862;2024-03-02T02:25:53;7.00;99.90
52867;DHT22;38739;53.324;6.862;2024-03-02T02:28:20;7.00;99.90
52867;DHT22;38739;53.324;6.862;2024-03-02T02:30:45;7.00;99.90
52867;DHT22;38739;53.324;6.862;2024-03-02T02:33:11;7.00;99.90
52867;DHT22;38739;53.324;6.862;2024-03-02T02:35:37;6.90;99.90
52867;DHT22;38739;53.324;6.862;2024-03-02T02:38:03;6.90;99.90
52867;DHT22;38739;53.324;6.862;2024-03-02T02:40:29;6.90;99.90
52867;DHT22;38739;53.324;6.862;2024-03-02T02:42:58;6.80;99.90
52867;DHT22;38739;53.324;6.862;2024-03-02T02:45:24;6.90;99.90
52867;DHT22;38739;53.324;6.862;2024-03-02T02:47:50;6.80;99.90
52867;DHT22;38739;53.324;6.862;2024-03-02T02:50:16;6.80;99.90
52867;DHT22;38739;53.324;6.862;2024-03-02T02:52:42;6.80;99.90
52867;DHT22;38739;53.324;6.862;2024-03-02T02:55:10;6.80;99.90
52867;DHT22;38739;53.324;6.862;2024-03-02T02:57:36;6.80;99.90
52867;DHT22;38739;53.324;6.862;2024-03-02T03:00:06;6.90;99.90
52867;DHT22;38739;53.324;6.862;2024-03-02T03:02:39;6.80;99.90
52867;DHT22;38739;53.324;6.862;2024-03-02T03:05:07;6.90;99.90
52867;DHT22;38739;53.324;6.862;2024-03-02T03:07:33;6.90;99.90
52867;DHT22;38739;53.324;6.862;2024-03-02T03:10:03;6.90;99.90
52867;DHT22;38739;53.324;6.862;2024-03-02T03:12:30;6.90;99.90
52867;DHT22;38739;53.324;6.862;2024-03-02T03:14:56;7.00;99.90
52867;DHT22;38739;53.324;6.862;2024-03-02T03:17:22;7.00;99.90
52867;DHT22;38739;53.324;6.862;2024-03-02T03:19:49;7.00;99.90
52867;DHT22;38739;53.324;6.862;2024-03-02T03:22:15;7.00;99.90
52867;DHT22;38739;53.324;6.862;2024-03-02T03:24:41;7.10;99.90
52867;DHT22;38739;53.324;6.862;2024-03-02T03:27:07;7.10;99.90
52867;DHT22;38739;53.324;6.862;2024-03-02T03:29:32;7.10;99.90
52867;DHT22;38739;53.324;6.862;2024-03-02T03:31:58;7.10;99.90
52867;DHT22;38739;53.324;6.862;2024-03-02T03:34:24;7.10;99.90
52867;DHT22;38739;53.324;6.862;2024-03-02T03:36:50;7.20;99.90
52867;DHT22;38739;53.324;6.862;2024-03-02T03:39:15;7.20;99.90
52867;DHT22;38739;53.324;6.862;2024-03-02T03:41:41;7.20;99.90
52867;DHT22;38739;53.324;6.862;2024-03-02T03:44:07;7.20;99.90
52867;DHT22;38739;53.324;6.862;2024-03-02T03:46:32;7.20;99.90
52867;DHT22;38739;53.324;6.862;2024-03-02T03:48:58;7.20;99.90
52867;DHT22;38739;53.324;6.862;2024-03-02T03:51:24;7.20;99.90
52867;DHT22;38739;53.324;6.862;2024-03-02T03:53:50;7.20;99.90
52867;DHT22;38739;53.324;6.862;2024-03-02T03:56:16;7.20;99.90
52867;DHT22;38739;53.324;6.862;2024-03-02T03:58:41;7.20;99.90
52867;DHT22;38739;53.324;6.862;2024-03-02T04:01:07;7.20;99.90
52867;DHT22;38739;53.324;6.862;2024-03-02T04:03:33;7.10;99.90
52867;DHT22;38739;53.324;6.862;2024-03-02T04:05:59;7.10;99.90
52867;DHT22;38739;53.324;6.862;2024-03-02T04:08:25;7.10;99.90
52867;DHT22;38739;53.324;6.862;2024-03-02T04:10:51;7.10;99.90
52867;DHT22;38739;53.324;6.862;2024-03-02T04:13:16;7.10;99.90
52867;DHT22;38739;53.324;6.862;2024-03-02T04:15:42;7.10;99.90
52867;DHT22;38739;53.324;6.862;2024-03-02T04:18:07;7.00;99.90
52867;DHT22;38739;53.324;6.862;2024-03-02T04:20:33;7.10;99.90
52867;DHT22;38739;53.324;6.862;2024-03-02T04:22:59;7.00;99.90
52867;DHT22;38739;53.324;6.862;2024-03-02T04:25:25;7.00;99.90
52867;DHT22;38739;53.324;6.862;2024-03-02T04:27:50;7.00;99.90
52867;DHT22;38739;53.324;6.862;2024-03-02T04:30:16;6.90;99.90
52867;DHT22;38739;53.324;6.862;2024-03-02T04:32:42;6.90;99.90
52867;DHT22;38739;53.324;6.862;2024-03-02T04:35:11;6.90;99.90
52867;DHT22;38739;53.324;6.862;2024-03-02T04:37:38;6.80;99.90
52867;DHT22;38739;53.324;6.862;2024-03-02T04:40:04;6.80;99.90
52867;DHT22;38739;53.324;6.862;2024-03-02T04:42:34;6.80;99.90
52867;DHT22;38739;53.324;6.862;2024-03-02T04:45:00;6.80;99.90
52867;DHT22;38739;53.324;6.862;2024-03-02T04:47:26;6.80;99.90
52867;DHT22;38739;53.324;6.862;2024-03-02T04:49:51;6.80;99.90
52867;DHT22;38739;53.324;6.862;2024-03-02T04:52:17;6.70;99.90
52867;DHT22;38739;53.324;6.862;2024-03-02T04:54:43;6.60;99.90
52867;DHT22;38739;53.324;6.862;2024-03-02T04:57:27;6.60;99.90
52867;DHT22;38739;53.324;6.862;2024-03-02T04:59:53;6.60;99.90
52867;DHT22;38739;53.324;6.862;2024-03-02T05:02:19;6.50;99.90
52867;DHT22;38739;53.324;6.862;2024-03-02T05:04:44;6.50;99.90
52867;DHT22;38739;53.324;6.862;2024-03-02T05:07:10;6.50;99.90
52867;DHT22;38739;53.324;6.862;2024-03-02T05:09:36;6.50;99.90
52867;DHT22;38739;53.324;6.862;2024-03-02T05:12:02;6.50;99.90
52867;DHT22;38739;53.324;6.862;2024-03-02T05:14:46;6.50;99.90
52867;DHT22;38739;53.324;6.862;2024-03-02T05:17:12;6.50;99.90
52867;DHT22;38739;53.324;6.862;2024-03-02T05:19:38;6.50;99.90
52867;DHT22;38739;53.324;6.862;2024-03-02T05:22:04;6.50;99.90
52867;DHT22;38739;53.324;6.862;2024-03-02T05:24:31;6.50;99.90
52867;DHT22;38739;53.324;6.862;2024-03-02T05:26:56;6.50;99.90
52867;DHT22;38739;53.324;6.862;2024-03-02T05:29:22;6.50;99.90
52867;DHT22;38739;53.324;6.862;2024-03-02T05:31:48;6.60;99.90
52867;DHT22;38739;53.324;6.862;2024-03-02T05:34:14;6.60;99.90
52867;DHT22;38739;53.324;6.862;2024-03-02T05:36:40;6.60;99.90
52867;DHT22;38739;53.324;6.862;2024-03-02T05:39:05;6.60;99.90
52867;DHT22;38739;53.324;6.862;2024-03-02T05:41:35;6.60;99.90
52867;DHT22;38739;53.324;6.862;2024-03-02T05:44:00;6.70;99.90
52867;DHT22;38739;53.324;6.862;2024-03-02T05:46:27;6.70;99.90
52867;DHT22;38739;53.324;6.862;2024-03-02T05:48:53;6.70;99.90
52867;DHT22;38739;53.324;6.862;2024-03-02T05:51:19;6.70;99.90
52867;DHT22;38739;53.324;6.862;2024-03-02T05:53:44;6.80;99.90
52867;DHT22;38739;53.324;6.862;2024-03-02T05:56:10;6.70;99.90
52867;DHT22;38739;53.324;6.862;2024-03-02T05:58:37;6.80;99.90
52867;DHT22;38739;53.324;6.862;2024-03-02T06:01:18;6.70;99.90
52867;DHT22;38739;53.324;6.862;2024-03-02T06:03:44;6.70;99.90
52867;DHT22;38739;53.324;6.862;2024-03-02T06:06:10;6.70;99.90
52867;DHT22;38739;53.324;6.862;2024-03-02T06:08:36;6.60;99.90
52867;DHT22;38739;53.324;6.862;2024-03-02T06:11:01;6.60;99.90
52867;DHT22;38739;53.324;6.862;2024-03-02T06:13:27;6.60;99.90
52867;DHT22;38739;53.324;6.862;2024-03-02T06:15:53;6.60;99.90
52867;DHT22;38739;53.324;6.862;2024-03-02T06:18:18;6.60;99.90
52867;DHT22;38739;53.324;6.862;2024-03-02T06:20:44;6.60;99.90
52867;DHT22;38739;53.324;6.862;2024-03-02T06:23:10;6.60;99.90
52867;DHT22;38739;53.324;6.862;2024-03-02T06:25:36;6.60;99.90
52867;DHT22;38739;53.324;6.862;2024-03-02T06:28:02;6.60;99.90
52867;DHT22;38739;53.324;6.862;2024-03-02T06:30:28;6.60;99.90
52867;DHT22;38739;53.324;6.862;2024-03-02T06:32:53;6.60;99.90
52867;DHT22;38739;53.324;6.862;2024-03-02T06:35:19;6.60;99.90
52867;DHT22;38739;53.324;6.862;2024-03-02T06:37:45;6.60;99.90
52867;DHT22;38739;53.324;6.862;2024-03-02T06:40:10;6.60;99.90
52867;DHT22;38739;53.324;6.862;2024-03-02T06:42:36;6.60;99.90
52867;DHT22;38739;53.324;6.862;2024-03-02T06:45:03;6.60;99.90
52867;DHT22;38739;53.324;6.862;2024-03-02T06:47:29;6.70;99.90
52867;DHT22;38739;53.324;6.862;2024-03-02T06:49:56;6.70;99.90
52867;DHT22;38739;53.324;6.862;2024-03-02T06:52:24;6.70;99.90
52867;DHT22;38739;53.324;6.862;2024-03-02T06:54:49;6.70;99.90
52867;DHT22;38739;53.324;6.862;2024-03-02T06:57:15;6.60;99.90
52867;DHT22;38739;53.324;6.862;2024-03-02T06:59:42;6.60;99.90
52867;DHT22;38739;53.324;6.862;2024-03-02T07:02:08;6.60;99.90
52867;DHT22;38739;53.324;6.862;2024-03-02T07:04:34;6.60;99.90
52867;DHT22;38739;53.324;6.862;2024-03-02T07:07:00;6.60;99.90
52867;DHT22;38739;53.324;6.862;2024-03-02T07:09:25;6.60;99.90
52867;DHT22;38739;53.324;6.862;2024-03-02T07:11:51;6.60;99.90
52867;DHT22;38739;53.324;6.862;2024-03-02T07:14:17;6.60;99.90
52867;DHT22;38739;53.324;6.862;2024-03-02T07:16:43;6.60;99.90
52867;DHT22;38739;53.324;6.862;2024-03-02T07:19:09;6.50;99.90
52867;DHT22;38739;53.324;6.862;2024-03-02T07:21:35;6.60;99.90
52867;DHT22;38739;53.324;6.862;2024-03-02T07:24:00;6.50;99.90
52867;DHT22;38739;53.324;6.862;2024-03-02T07:26:30;6.50;99.90
52867;DHT22;38739;53.324;6.862;2024-03-02T07:28:57;6.50;99.90
52867;DHT22;38739;53.324;6.862;2024-03-02T07:31:23;6.50;99.90
52867;DHT22;38739;53.324;6.862;2024-03-02T07:33:48;6.50;99.90
52867;DHT22;38739;53.324;6.862;2024-03-02T07:36:14;6.60;99.90
52867;DHT22;38739;53.324;6.862;2024-03-02T07:38:40;6.60;99.90
52867;DHT22;38739;53.324;6.862;2024-03-02T07:41:07;6.70;99.90
52867;DHT22;38739;53.324;6.862;2024-03-02T07:43:33;6.80;99.90
52867;DHT22;38739;53.324;6.862;2024-03-02T07:45:59;6.90;99.90
52867;DHT22;38739;53.324;6.862;2024-03-02T07:48:25;7.00;99.90
52867;DHT22;38739;53.324;6.862;2024-03-02T07:50:51;7.20;99.90
52867;DHT22;38739;53.324;6.862;2024-03-02T07:53:16;7.30;99.90
52867;DHT22;38739;53.324;6.862;2024-03-02T07:55:42;7.40;99.90
52867;DHT22;38739;53.324;6.862;2024-03-02T07:58:08;7.40;99.90
52867;DHT22;38739;53.324;6.862;2024-03-02T08:00:34;7.50;99.90
52867;DHT22;38739;53.324;6.862;2024-03-02T08:03:01;7.60;99.90
52867;DHT22;38739;53.324;6.862;2024-03-02T08:05:26;7.80;99.90
52867;DHT22;38739;53.324;6.862;2024-03-02T08:07:53;8.00;99.90
52867;DHT22;38739;53.324;6.862;2024-03-02T08:10:19;8.20;99.90
52867;DHT22;38739;53.324;6.862;2024-03-02T08:12:45;8.30;99.90
52867;DHT22;38739;53.324;6.862;2024-03-02T08:15:11;8.50;99.90
52867;DHT22;38739;53.324;6.862;2024-03-02T08:17:39;8.70;99.90
52867;DHT22;38739;53.324;6.862;2024-03-02T08:20:11;8.90;99.90
52867;DHT22;38739;53.324;6.862;2024-03-02T08:22:37;9.10;99.90
52867;DHT22;38739;53.324;6.862;2024-03-02T08:25:03;9.30;99.90
52867;DHT22;38739;53.324;6.862;2024-03-02T08:27:29;9.30;99.90
52867;DHT22;38739;53.324;6.862;2024-03-02T08:29:55;9.40;99.90
52867;DHT22;38739;53.324;6.862;2024-03-02T08:32:20;9.50;99.90
52867;DHT22;38739;53.324;6.862;2024-03-02T08:34:46;9.60;99.90
52867;DHT22;38739;53.324;6.862;2024-03-02T08:37:12;9.60;99.90
52867;DHT22;38739;53.324;6.862;2024-03-02T08:39:37;9.70;99.90
52867;DHT22;38739;53.324;6.862;2024-03-02T08:42:04;9.60;99.90
52867;DHT22;38739;53.324;6.862;2024-03-02T08:44:30;9.50;99.90
52867;DHT22;38739;53.324;6.862;2024-03-02T08:46:56;9.40;99.90
52867;DHT22;38739;53.324;6.862;2024-03-02T08:49:21;9.30;99.90
52867;DHT22;38739;53.324;6.862;2024-03-02T08:51:47;9.20;99.90
52867;DHT22;38739;53.324;6.862;2024-03-02T08:54:21;9.20;99.90
52867;DHT22;38739;53.324;6.862;2024-03-02T08:56:50;9.20;99.90
52867;DHT22;38739;53.324;6.862;2024-03-02T08:59:16;9.20;99.90
52867;DHT22;38739;53.324;6.862;2024-03-02T09:01:42;9.20;99.90
52867;DHT22;38739;53.324;6.862;2024-03-02T09:04:08;9.10;99.90
52867;DHT22;38739;53.324;6.862;2024-03-02T09:06:34;9.10;99.90
52867;DHT22;38739;53.324;6.862;2024-03-02T09:09:00;9.10;99.90
52867;DHT22;38739;53.324;6.862;2024-03-02T09:11:26;9.10;99.90
52867;DHT22;38739;53.324;6.862;2024-03-02T09:13:52;9.10;99.90
52867;DHT22;38739;53.324;6.862;2024-03-02T09:16:18;9.00;99.90
52867;DHT22;38739;53.324;6.862;2024-03-02T09:18:45;9.00;99.90
52867;DHT22;38739;53.324;6.862;2024-03-02T09:21:10;9.10;99.90
52867;DHT22;38739;53.324;6.862;2024-03-02T09:23:36;9.30;99.90
52867;DHT22;38739;53.324;6.862;2024-03-02T09:26:02;9.20;99.90
52867;DHT22;38739;53.324;6.862;2024-03-02T09:28:28;9.30;99.90
52867;DHT22;38739;53.324;6.862;2024-03-02T09:30:54;9.30;99.90
52867;DHT22;38739;53.324;6.862;2024-03-02T09:33:20;9.20;99.90
52867;DHT22;38739;53.324;6.862;2024-03-02T09:35:46;9.20;99.90
52867;DHT22;38739;53.324;6.862;2024-03-02T09:38:11;9.30;99.90
52867;DHT22;38739;53.324;6.862;2024-03-02T09:40:37;9.40;99.90
52867;DHT22;38739;53.324;6.862;2024-03-02T09:43:03;9.60;99.90
52867;DHT22;38739;53.324;6.862;2024-03-02T09:45:30;10.00;99.90
52867;DHT22;38739;53.324;6.862;2024-03-02T09:47:55;10.60;99.90
52867;DHT22;38739;53.324;6.862;2024-03-02T09:50:21;11.40;99.90
52867;DHT22;38739;53.324;6.862;2024-03-02T09:52:51;12.50;99.90
52867;DHT22;38739;53.324;6.862;2024-03-02T09:55:18;13.40;99.90
52867;DHT22;38739;53.324;6.862;2024-03-02T09:57:45;14.00;99.90
52867;DHT22;38739;53.324;6.862;2024-03-02T10:00:12;14.20;99.90
52867;DHT22;38739;53.324;6.862;2024-03-02T10:02:41;14.70;99.90
52867;DHT22;38739;53.324;6.862;2024-03-02T10:05:08;15.30;99.90
52867;DHT22;38739;53.324;6.862;2024-03-02T10:07:34;15.60;99.90
52867;DHT22;38739;53.324;6.862;2024-03-02T10:10:15;16.20;99.90
52867;DHT22;38739;53.324;6.862;2024-03-02T10:12:41;16.50;98.70
52867;DHT22;38739;53.324;6.862;2024-03-02T10:15:07;16.80;96.80
52867;DHT22;38739;53.324;6.862;2024-03-02T10:17:34;17.00;96.30
52867;DHT22;38739;53.324;6.862;2024-03-02T10:22:49;17.60;93.60
52867;DHT22;38739;53.324;6.862;2024-03-02T10:25:31;17.60;93.90
52867;DHT22;38739;53.324;6.862;2024-03-02T10:27:58;17.70;92.00
52867;DHT22;38739;53.324;6.862;2024-03-02T10:30:28;18.10;93.70
52867;DHT22;38739;53.324;6.862;2024-03-02T10:32:55;18.10;92.00
52867;DHT22;38739;53.324;6.862;2024-03-02T10:35:23;18.20;91.70
52867;DHT22;38739;53.324;6.862;2024-03-02T10:37:50;18.20;91.70
52867;DHT22;38739;53.324;6.862;2024-03-02T10:40:16;18.30;90.50
52867;DHT22;38739;53.324;6.862;2024-03-02T10:42:42;18.20;90.00
52867;DHT22;38739;53.324;6.862;2024-03-02T10:45:10;18.20;90.00
52867;DHT22;38739;53.324;6.862;2024-03-02T10:47:38;17.80;90.00
52867;DHT22;38739;53.324;6.862;2024-03-02T10:50:07;17.10;90.30
52867;DHT22;38739;53.324;6.862;2024-03-02T10:52:37;17.20;90.70
52867;DHT22;38739;53.324;6.862;2024-03-02T10:55:03;17.40;91.90
52867;DHT22;38739;53.324;6.862;2024-03-02T10:57:57;17.80;91.10
52867;DHT22;38739;53.324;6.862;2024-03-02T11:00:30;18.00;88.90
52867;DHT22;38739;53.324;6.862;2024-03-02T11:03:04;18.50;88.30
52867;DHT22;38739;53.324;6.862;2024-03-02T11:05:38;19.20;87.60
52867;DHT22;38739;53.324;6.862;2024-03-02T11:08:08;19.00;83.10
52867;DHT22;38739;53.324;6.862;2024-03-02T11:10:51;19.00;82.50
52867;DHT22;38739;53.324;6.862;2024-03-02T11:13:22;18.70;83.30
52867;DHT22;38739;53.324;6.862;2024-03-02T11:15:52;19.10;86.70
52867;DHT22;38739;53.324;6.862;2024-03-02T11:18:19;19.40;84.10
52867;DHT22;38739;53.324;6.862;2024-03-02T11:20:45;19.60;83.20
52867;DHT22;38739;53.324;6.862;2024-03-02T11:23:12;19.70;80.80
52867;DHT22;38739;53.324;6.862;2024-03-02T11:25:37;20.30;82.80
52867;DHT22;38739;53.324;6.862;2024-03-02T11:28:06;20.40;80.40
52867;DHT22;38739;53.324;6.862;2024-03-02T11:33:07;20.80;77.60
52867;DHT22;38739;53.324;6.862;2024-03-02T11:35:37;21.10;76.20
52867;DHT22;38739;53.324;6.862;2024-03-02T11:38:03;21.10;74.50
52867;DHT22;38739;53.324;6.862;2024-03-02T11:40:30;21.50;75.20
52867;DHT22;38739;53.324;6.862;2024-03-02T11:42:56;22.00;74.50
52867;DHT22;38739;53.324;6.862;2024-03-02T11:45:23;22.30;73.20
52867;DHT22;38739;53.324;6.862;2024-03-02T11:47:57;22.50;71.00
52867;DHT22;38739;53.324;6.862;2024-03-02T11:50:36;22.30;69.40
52867;DHT22;38739;53.324;6.862;2024-03-02T11:53:05;21.60;68.00
52867;DHT22;38739;53.324;6.862;2024-03-02T11:55:37;20.60;73.50
52867;DHT22;38739;53.324;6.862;2024-03-02T11:58:05;20.00;75.40
52867;DHT22;38739;53.324;6.862;2024-03-02T12:00:31;20.00;74.30
52867;DHT22;38739;53.324;6.862;2024-03-02T12:03:05;19.70;73.60
52867;DHT22;38739;53.324;6.862;2024-03-02T12:05:31;19.80;74.00
52867;DHT22;38739;53.324;6.862;2024-03-02T12:07:58;20.40;73.90
52867;DHT22;38739;53.324;6.862;2024-03-02T12:10:25;21.40;73.30
52867;DHT22;38739;53.324;6.862;2024-03-02T12:13:01;21.20;69.90
52867;DHT22;38739;53.324;6.862;2024-03-02T12:15:33;20.90;72.30
52867;DHT22;38739;53.324;6.862;2024-03-02T12:18:00;20.80;70.60
52867;DHT22;38739;53.324;6.862;2024-03-02T12:20:28;21.90;70.90
52867;DHT22;38739;53.324;6.862;2024-03-02T12:22:57;22.80;70.30
52867;DHT22;38739;53.324;6.862;2024-03-02T12:25:23;23.40;67.30
52867;DHT22;38739;53.324;6.862;2024-03-02T12:27:51;22.50;66.10
52867;DHT22;38739;53.324;6.862;2024-03-02T12:30:18;22.10;67.00
52867;DHT22;38739;53.324;6.862;2024-03-02T12:32:44;22.70;67.20
52867;DHT22;38739;53.324;6.862;2024-03-02T12:35:13;22.10;65.60
52867;DHT22;38739;53.324;6.862;2024-03-02T12:37:47;21.70;66.30
52867;DHT22;38739;53.324;6.862;2024-03-02T12:40:13;21.80;65.40
52867;DHT22;38739;53.324;6.862;2024-03-02T12:42:40;21.60;66.10
52867;DHT22;38739;53.324;6.862;2024-03-02T12:45:08;21.90;67.20
52867;DHT22;38739;53.324;6.862;2024-03-02T12:47:34;22.20;65.70
52867;DHT22;38739;53.324;6.862;2024-03-02T12:50:00;22.50;65.00
52867;DHT22;38739;53.324;6.862;2024-03-02T12:52:26;22.10;63.50
52867;DHT22;38739;53.324;6.862;2024-03-02T12:54:52;22.10;64.10
52867;DHT22;38739;53.324;6.862;2024-03-02T12:57:21;21.90;64.50
52867;DHT22;38739;53.324;6.862;2024-03-02T12:59:47;21.40;64.00
52867;DHT22;38739;53.324;6.862;2024-03-02T13:02:19;21.00;65.20
52867;DHT22;38739;53.324;6.862;2024-03-02T13:04:52;21.00;65.80
52867;DHT22;38739;53.324;6.862;2024-03-02T13:07:23;20.80;66.40
52867;DHT22;38739;53.324;6.862;2024-03-02T13:09:53;21.30;68.30
52867;DHT22;38739;53.324;6.862;2024-03-02T13:12:21;21.80;66.30
52867;DHT22;38739;53.324;6.862;2024-03-02T13:14:51;22.00;65.30
52867;DHT22;38739;53.324;6.862;2024-03-02T13:17:18;22.60;63.50
52867;DHT22;38739;53.324;6.862;2024-03-02T13:19:57;23.20;63.60
52867;DHT22;38739;53.324;6.862;2024-03-02T13:22:24;23.80;62.10
52867;DHT22;38739;53.324;6.862;2024-03-02T13:24:51;23.30;61.70
52867;DHT22;38739;53.324;6.862;2024-03-02T13:27:17;22.60;62.00
52867;DHT22;38739;53.324;6.862;2024-03-02T13:29:46;22.40;62.70
52867;DHT22;38739;53.324;6.862;2024-03-02T13:32:16;22.60;63.60
52867;DHT22;38739;53.324;6.862;2024-03-02T13:34:42;22.80;62.50
52867;DHT22;38739;53.324;6.862;2024-03-02T13:37:08;22.50;62.30
52867;DHT22;38739;53.324;6.862;2024-03-02T13:39:34;22.30;62.30
52867;DHT22;38739;53.324;6.862;2024-03-02T13:42:07;22.50;62.60
52867;DHT22;38739;53.324;6.862;2024-03-02T13:44:33;22.50;63.20
52867;DHT22;38739;53.324;6.862;2024-03-02T13:47:00;22.30;62.70
52867;DHT22;38739;53.324;6.862;2024-03-02T13:49:26;22.50;62.70
52867;DHT22;38739;53.324;6.862;2024-03-02T13:52:06;22.00;61.90
52867;DHT22;38739;53.324;6.862;2024-03-02T13:54:43;21.80;61.60
52867;DHT22;38739;53.324;6.862;2024-03-02T13:57:10;21.00;63.70
52867;DHT22;38739;53.324;6.862;2024-03-02T13:59:36;20.20;66.00
52867;DHT22;38739;53.324;6.862;2024-03-02T14:02:02;19.40;67.20
52867;DHT22;38739;53.324;6.862;2024-03-02T14:04:35;18.70;67.90
52867;DHT22;38739;53.324;6.862;2024-03-02T14:07:02;18.10;69.10
52867;DHT22;38739;53.324;6.862;2024-03-02T14:09:28;17.50;70.20
52867;DHT22;38739;53.324;6.862;2024-03-02T14:11:54;17.30;71.20
52867;DHT22;38739;53.324;6.862;2024-03-02T14:14:21;17.20;71.40
52867;DHT22;38739;53.324;6.862;2024-03-02T14:16:46;17.20;71.40
52867;DHT22;38739;53.324;6.862;2024-03-02T14:19:12;16.90;72.00
52867;DHT22;38739;53.324;6.862;2024-03-02T14:21:39;16.70;72.70
52867;DHT22;38739;53.324;6.862;2024-03-02T14:24:05;16.30;73.00
52867;DHT22;38739;53.324;6.862;2024-03-02T14:26:33;16.00;73.60
52867;DHT22;38739;53.324;6.862;2024-03-02T14:28:59;15.80;74.40
52867;DHT22;38739;53.324;6.862;2024-03-02T14:31:26;15.50;74.60
52867;DHT22;38739;53.324;6.862;2024-03-02T14:33:53;15.20;75.60
52867;DHT22;38739;53.324;6.862;2024-03-02T14:36:18;15.10;76.30
52867;DHT22;38739;53.324;6.862;2024-03-02T14:38:44;15.00;77.00
52867;DHT22;38739;53.324;6.862;2024-03-02T14:41:10;14.80;77.50
52867;DHT22;38739;53.324;6.862;2024-03-02T14:43:36;14.70;78.40
52867;DHT22;38739;53.324;6.862;2024-03-02T14:46:03;14.60;79.20
52867;DHT22;38739;53.324;6.862;2024-03-02T14:48:29;14.50;79.60
52867;DHT22;38739;53.324;6.862;2024-03-02T14:50:55;14.40;80.00
52867;DHT22;38739;53.324;6.862;2024-03-02T14:53:21;14.30;79.60
52867;DHT22;38739;53.324;6.862;2024-03-02T14:55:47;14.30;80.30
52867;DHT22;38739;53.324;6.862;2024-03-02T14:58:12;14.20;80.50
52867;DHT22;38739;53.324;6.862;2024-03-02T15:00:38;14.20;81.00
52867;DHT22;38739;53.324;6.862;2024-03-02T15:03:04;14.10;81.40
52867;DHT22;38739;53.324;6.862;2024-03-02T15:05:33;14.00;81.60
52867;DHT22;38739;53.324;6.862;2024-03-02T15:07:58;14.00;82.80
52867;DHT22;38739;53.324;6.862;2024-03-02T15:10:27;14.00;83.80
52867;DHT22;38739;53.324;6.862;2024-03-02T15:12:53;14.00;84.20
52867;DHT22;38739;53.324;6.862;2024-03-02T15:15:19;14.00;84.20
52867;DHT22;38739;53.324;6.862;2024-03-02T15:17:44;13.90;84.80
52867;DHT22;38739;53.324;6.862;2024-03-02T15:20:11;13.90;85.20
52867;DHT22;38739;53.324;6.862;2024-03-02T15:22:37;13.80;85.60
52867;DHT22;38739;53.324;6.862;2024-03-02T15:25:03;13.80;86.50
52867;DHT22;38739;53.324;6.862;2024-03-02T15:27:29;13.70;87.20
52867;DHT22;38739;53.324;6.862;2024-03-02T15:29:55;13.60;87.80
52867;DHT22;38739;53.324;6.862;2024-03-02T15:32:23;13.50;89.00
52867;DHT22;38739;53.324;6.862;2024-03-02T15:34:48;13.50;90.20
52867;DHT22;38739;53.324;6.862;2024-03-02T15:37:14;13.40;90.70
52867;DHT22;38739;53.324;6.862;2024-03-02T15:39:40;13.30;91.50
52867;DHT22;38739;53.324;6.862;2024-03-02T15:42:06;13.20;92.30
52867;DHT22;38739;53.324;6.862;2024-03-02T15:44:31;13.10;92.80
52867;DHT22;38739;53.324;6.862;2024-03-02T15:46:58;13.10;93.30
52867;DHT22;38739;53.324;6.862;2024-03-02T15:49:24;13.00;93.90
52867;DHT22;38739;53.324;6.862;2024-03-02T15:51:50;12.90;94.50